Time;durP1;ratioP1;P1;durP2;ratioP2;P2;SDS_P1;SDS_P2;PMS_P1;PMS_P2;Temp;Humidity;BMP_temperature;BMP_pressure;BME280_temperature;BME280_humidity;BME280_pressure;Samples;Min_cycle;Max_cycle;Signal;HPM_P1;HPM_P2
2023/12/31 00:00:34;;;;;;;7.40;3.20;;;8.70;99.90;;;;;;5061376;28;20036;-68
2023/12/31 00:03:00;;;;;;;6.20;2.42;;;8.70;99.90;;;;;;5065357;28;20601;-67
2023/12/31 00:05:27;;;;;;;6.82;2.80;;;8.70;99.90;;;;;;5024738;28;20050;-67
2023/12/31 00:07:52;;;;;;;7.75;2.80;;;8.70;99.90;;;;;;5047229;28;20048;-68
2023/12/31 00:10:18;;;;;;;6.72;3.08;;;8.70;99.90;;;;;;5047864;28;20074;-68
2023/12/31 00:12:44;;;;;;;7.50;2.80;;;8.80;99.90;;;;;;5044330;28;20043;-68
2023/12/31 00:15:10;;;;;;;4.30;2.55;;;8.80;99.90;;;;;;5064999;28;20636;-68
2023/12/31 00:17:37;;;;;;;6.32;2.28;;;8.80;99.90;;;;;;5028033;28;20600;-68
2023/12/31 00:20:03;;;;;;;6.82;2.50;;;8.80;99.90;;;;;;5060537;28;20371;-67
2023/12/31 00:22:29;;;;;;;6.13;2.75;;;8.80;99.90;;;;;;5044966;28;20052;-68
2023/12/31 00:24:55;;;;;;;7.65;2.65;;;8.90;99.90;;;;;;5024609;28;20797;-68
2023/12/31 00:27:21;;;;;;;6.43;2.55;;;8.80;99.90;;;;;;5041828;28;20637;-67
2023/12/31 00:29:48;;;;;;;4.15;2.15;;;8.80;99.90;;;;;;5046798;28;20039;-68
2023/12/31 00:32:15;;;;;;;4.22;2.03;;;8.80;99.90;;;;;;5024166;28;20036;-68
2023/12/31 00:34:41;;;;;;;5.43;1.88;;;8.70;99.90;;;;;;5082286;28;20249;-68
2023/12/31 00:37:07;;;;;;;8.05;2.42;;;8.70;99.90;;;;;;5047722;28;20039;-68
2023/12/31 00:39:33;;;;;;;4.13;2.28;;;8.70;99.90;;;;;;5062293;28;20047;-68
2023/12/31 00:41:58;;;;;;;6.53;2.30;;;8.70;99.90;;;;;;5051734;28;20063;-68
2023/12/31 00:44:24;;;;;;;5.70;2.63;;;8.70;99.90;;;;;;5060888;28;20278;-67
2023/12/31 00:46:50;;;;;;;6.45;2.30;;;8.70;99.90;;;;;;5063242;28;20725;-68
2023/12/31 00:49:16;;;;;;;7.57;2.58;;;8.70;99.90;;;;;;5061749;28;20035;-68
2023/12/31 00:51:43;;;;;;;7.38;2.85;;;8.70;99.90;;;;;;5022331;28;20286;-67
2023/12/31 00:54:09;;;;;;;6.25;2.65;;;8.80;99.90;;;;;;5026825;28;20151;-68
2023/12/31 00:56:35;;;;;;;5.57;2.25;;;8.80;99.90;;;;;;5059253;28;20135;-67
2023/12/31 00:59:03;;;;;;;6.28;2.80;;;8.80;99.90;;;;;;5063060;28;20505;-67
2023/12/31 01:01:29;;;;;;;4.38;2.45;;;8.70;99.90;;;;;;5042787;28;20301;-67
2023/12/31 01:03:55;;;;;;;5.20;2.35;;;8.70;99.90;;;;;;5046803;28;20131;-67
2023/12/31 01:06:21;;;;;;;6.50;2.50;;;8.70;99.90;;;;;;5042781;28;20393;-68
2023/12/31 01:08:46;;;;;;;5.03;2.35;;;8.70;99.90;;;;;;5064606;28;20190;-68
2023/12/31 01:11:12;;;;;;;6.78;2.65;;;8.70;99.90;;;;;;5065142;28;20362;-68
2023/12/31 01:13:39;;;;;;;4.75;2.50;;;8.70;99.90;;;;;;5023951;28;20406;-68
2023/12/31 01:16:05;;;;;;;7.82;3.25;;;8.80;99.90;;;;;;5033696;28;20044;-68
2023/12/31 01:18:31;;;;;;;6.00;3.20;;;8.80;99.90;;;;;;5030386;28;20211;-68
2023/12/31 01:20:57;;;;;;;5.45;2.33;;;8.80;99.90;;;;;;5032171;28;20052;-68
2023/12/31 01:23:26;;;;;;;6.65;3.00;;;8.80;99.90;;;;;;5048824;28;20052;-68
2023/12/31 01:25:51;;;;;;;4.03;2.40;;;8.80;99.90;;;;;;5029709;28;20045;-67
2023/12/31 01:28:17;;;;;;;5.55;2.38;;;8.80;99.90;;;;;;5016761;28;20048;-68
2023/12/31 01:30:44;;;;;;;4.85;2.10;;;8.70;99.90;;;;;;5029962;28;20080;-68
2023/12/31 01:33:10;;;;;;;4.43;1.90;;;8.80;99.90;;;;;;5030248;28;20084;-68
2023/12/31 01:35:35;;;;;;;5.65;2.40;;;8.80;99.90;;;;;;5030810;28;20458;-68
2023/12/31 01:38:01;;;;;;;5.47;2.75;;;8.80;99.90;;;;;;4999764;28;20048;-68
2023/12/31 01:40:27;;;;;;;2.65;1.67;;;8.80;99.90;;;;;;5021082;28;20044;-68
2023/12/31 01:42:53;;;;;;;4.03;1.63;;;8.80;99.90;;;;;;5017980;28;20187;-67
2023/12/31 01:45:19;;;;;;;3.65;2.17;;;8.90;99.90;;;;;;5040346;28;20340;-68
2023/12/31 01:47:45;;;;;;;6.00;1.83;;;8.90;99.90;;;;;;5022617;28;20455;-67
2023/12/31 01:50:14;;;;;;;4.22;1.70;;;8.90;99.90;;;;;;5033852;28;20038;-69
2023/12/31 01:52:41;;;;;;;5.03;2.08;;;8.90;99.90;;;;;;5036354;28;20575;-68
2023/12/31 01:55:08;;;;;;;5.22;2.50;;;8.90;99.90;;;;;;5005953;28;20717;-68
2023/12/31 01:57:37;;;;;;;5.38;2.10;;;8.90;99.90;;;;;;5021174;28;20032;-68
2023/12/31 02:00:06;;;;;;;5.10;2.13;;;8.90;99.90;;;;;;5052229;28;20041;-67
2023/12/31 02:02:31;;;;;;;4.85;2.30;;;8.90;99.90;;;;;;5039327;28;20314;-68
2023/12/31 02:04:58;;;;;;;6.55;3.97;;;8.80;99.90;;;;;;5033425;28;20666;-67
2023/12/31 02:07:24;;;;;;;6.80;3.92;;;8.80;99.90;;;;;;4987335;28;20428;-67
2023/12/31 02:09:51;;;;;;;4.97;2.42;;;8.70;99.90;;;;;;5036559;28;20306;-67
2023/12/31 02:12:17;;;;;;;4.35;2.20;;;8.70;99.90;;;;;;5036950;28;20110;-68
2023/12/31 02:14:43;;;;;;;4.63;2.03;;;8.70;99.90;;;;;;5033480;28;20216;-69
2023/12/31 02:17:09;;;;;;;5.15;2.42;;;8.70;99.90;;;;;;5057384;28;20057;-67
2023/12/31 02:19:35;;;;;;;3.70;1.95;;;8.70;99.90;;;;;;5022917;28;20043;-68
2023/12/31 02:22:01;;;;;;;4.40;2.40;;;8.70;99.90;;;;;;5024519;28;20049;-68
2023/12/31 02:24:33;;;;;;;4.53;2.10;;;8.60;99.90;;;;;;5022960;28;20499;-67
2023/12/31 02:26:59;;;;;;;3.88;2.70;;;8.60;99.90;;;;;;5058800;28;20182;-67
2023/12/31 02:29:25;;;;;;;5.30;1.90;;;8.60;99.90;;;;;;5024086;28;20433;-67
2023/12/31 02:31:50;;;;;;;4.72;2.28;;;8.60;99.90;;;;;;5039297;28;20048;-67
2023/12/31 02:34:16;;;;;;;3.65;2.03;;;8.60;99.90;;;;;;5025530;28;20036;-67
2023/12/31 02:36:42;;;;;;;3.88;1.70;;;8.60;99.90;;;;;;5000166;28;20041;-67
2023/12/31 02:39:08;;;;;;;3.63;1.85;;;8.60;99.90;;;;;;4969838;28;20036;-67
2023/12/31 02:41:34;;;;;;;3.33;1.73;;;8.50;99.90;;;;;;5042096;28;20037;-67
2023/12/31 02:44:01;;;;;;;4.45;2.00;;;8.50;99.90;;;;;;5009995;28;20068;-68
2023/12/31 02:46:27;;;;;;;4.45;1.85;;;8.50;99.90;;;;;;5005765;28;20041;-68
2023/12/31 02:48:53;;;;;;;2.95;1.55;;;8.50;99.90;;;;;;5020548;28;20051;-68
2023/12/31 02:51:19;;;;;;;2.95;1.35;;;8.50;99.90;;;;;;5008653;28;20032;-68
2023/12/31 02:53:44;;;;;;;3.78;1.52;;;8.50;99.90;;;;;;5001498;28;20318;-68
2023/12/31 02:56:10;;;;;;;2.63;1.30;;;8.60;99.90;;;;;;5022016;28;20388;-68
2023/12/31 02:58:36;;;;;;;3.13;1.45;;;8.60;99.90;;;;;;5026242;28;20488;-68
2023/12/31 03:01:02;;;;;;;3.10;1.20;;;8.60;99.90;;;;;;5025107;28;20048;-68
2023/12/31 03:03:28;;;;;;;2.95;0.90;;;8.60;99.90;;;;;;5040215;28;20668;-68
2023/12/31 03:05:53;;;;;;;4.18;1.20;;;8.60;99.90;;;;;;5038381;28;20534;-67
2023/12/31 03:08:19;;;;;;;2.67;0.93;;;8.60;99.90;;;;;;5022807;28;20041;-68
2023/12/31 03:10:45;;;;;;;3.83;0.90;;;8.70;99.90;;;;;;5025590;28;20284;-68
2023/12/31 03:13:10;;;;;;;1.92;0.70;;;8.70;99.90;;;;;;5042314;28;20506;-68
2023/12/31 03:15:36;;;;;;;3.85;0.90;;;8.70;99.90;;;;;;5028082;28;20511;-68
2023/12/31 03:18:04;;;;;;;3.42;1.00;;;8.70;99.90;;;;;;5026021;28;20053;-67
2023/12/31 03:20:30;;;;;;;2.05;0.70;;;8.70;99.90;;;;;;5022010;28;20435;-68
2023/12/31 03:22:55;;;;;;;2.15;0.73;;;8.70;99.90;;;;;;5025957;28;20305;-67
2023/12/31 03:25:21;;;;;;;3.03;0.70;;;8.70;99.90;;;;;;5022848;28;20235;-68
2023/12/31 03:27:47;;;;;;;2.35;0.70;;;8.70;99.90;;;;;;5036520;28;20571;-68
2023/12/31 03:30:13;;;;;;;3.50;0.73;;;8.70;99.90;;;;;;5019798;28;20129;-68
2023/12/31 03:32:38;;;;;;;3.70;0.82;;;8.70;99.90;;;;;;5020163;28;20040;-68
2023/12/31 03:35:04;;;;;;;1.10;0.55;;;8.70;99.90;;;;;;5023448;28;20033;-67
2023/12/31 03:37:30;;;;;;;2.20;0.57;;;8.70;99.90;;;;;;5036040;28;20098;-68
2023/12/31 03:39:56;;;;;;;3.05;0.80;;;8.70;99.90;;;;;;5041959;28;20612;-68
2023/12/31 03:42:22;;;;;;;3.05;0.60;;;8.60;99.90;;;;;;5022007;28;20047;-68
2023/12/31 03:44:48;;;;;;;1.67;0.50;;;8.60;99.90;;;;;;5037509;28;20280;-67
2023/12/31 03:47:14;;;;;;;2.40;0.60;;;8.70;99.90;;;;;;5036157;28;20279;-68
2023/12/31 03:49:39;;;;;;;1.85;0.40;;;8.70;99.90;;;;;;5036432;28;20045;-68
2023/12/31 03:52:06;;;;;;;1.88;0.50;;;8.70;99.90;;;;;;5038456;28;20494;-68
2023/12/31 03:54:32;;;;;;;2.53;0.60;;;8.70;99.90;;;;;;5040787;28;20592;-68
2023/12/31 03:56:58;;;;;;;2.85;0.50;;;8.70;99.90;;;;;;5019960;28;20086;-68
2023/12/31 03:59:24;;;;;;;1.65;0.40;;;8.70;99.90;;;;;;5008376;28;20137;-68
2023/12/31 04:01:56;;;;;;;2.33;0.50;;;8.60;99.90;;;;;;5040271;28;20045;-68
2023/12/31 04:04:23;;;;;;;1.83;0.60;;;8.60;99.90;;;;;;5040562;28;20115;-68
2023/12/31 04:06:48;;;;;;;1.55;0.65;;;8.50;99.90;;;;;;5039350;28;20437;-68
2023/12/31 04:09:14;;;;;;;1.33;0.43;;;8.50;99.90;;;;;;5017756;28;20117;-69
2023/12/31 04:11:40;;;;;;;2.92;0.60;;;8.50;99.90;;;;;;5044241;28;20345;-69
2023/12/31 04:14:06;;;;;;;2.85;1.08;;;8.50;99.90;;;;;;5040466;28;20496;-68
2023/12/31 04:16:32;;;;;;;2.97;0.50;;;8.40;99.90;;;;;;5017497;28;20053;-68
2023/12/31 04:18:57;;;;;;;2.05;0.52;;;8.40;99.90;;;;;;4995007;28;20500;-68
2023/12/31 04:21:23;;;;;;;1.60;0.50;;;8.50;99.90;;;;;;5014547;28;20049;-69
2023/12/31 04:23:49;;;;;;;3.20;0.80;;;8.40;99.90;;;;;;5028170;28;20052;-69
2023/12/31 04:26:14;;;;;;;2.08;0.70;;;8.50;99.90;;;;;;5011227;28;20044;-68
2023/12/31 04:28:40;;;;;;;3.17;0.60;;;8.40;99.90;;;;;;5011902;28;20037;-68
2023/12/31 04:31:08;;;;;;;2.15;0.70;;;8.50;99.90;;;;;;5013966;28;20314;-69
2023/12/31 04:33:34;;;;;;;2.47;0.85;;;8.50;99.90;;;;;;5010935;28;20053;-69
2023/12/31 04:36:04;;;;;;;2.67;0.60;;;8.40;99.90;;;;;;5015310;28;20144;-68
2023/12/31 04:38:31;;;;;;;2.60;0.85;;;8.50;99.90;;;;;;5028697;28;20103;-68
2023/12/31 04:40:56;;;;;;;2.50;1.27;;;8.50;99.90;;;;;;5011846;28;20462;-69
2023/12/31 04:43:22;;;;;;;3.75;1.00;;;8.50;99.90;;;;;;5010668;28;20332;-68
2023/12/31 04:45:48;;;;;;;3.25;0.90;;;8.50;99.90;;;;;;4966013;28;20056;-69
2023/12/31 04:48:14;;;;;;;3.05;1.13;;;8.50;99.90;;;;;;4980926;28;20045;-68
2023/12/31 04:50:39;;;;;;;4.25;0.95;;;8.60;99.90;;;;;;4999500;28;20049;-68
2023/12/31 04:53:05;;;;;;;2.17;1.00;;;8.60;99.90;;;;;;5010012;28;20470;-69
2023/12/31 04:55:33;;;;;;;1.40;0.88;;;8.60;99.90;;;;;;5009526;28;20069;-68
2023/12/31 04:57:59;;;;;;;1.45;0.70;;;8.60;99.90;;;;;;4995225;28;20037;-68
2023/12/31 05:00:25;;;;;;;3.05;0.80;;;8.60;99.90;;;;;;5014269;28;20036;-68
2023/12/31 05:02:50;;;;;;;1.75;0.90;;;8.70;99.90;;;;;;5009697;28;20059;-69
2023/12/31 05:05:16;;;;;;;1.70;0.70;;;8.70;99.90;;;;;;5009585;28;20502;-67
2023/12/31 05:07:42;;;;;;;2.63;0.82;;;8.60;99.90;;;;;;5012776;28;20076;-68
2023/12/31 05:10:08;;;;;;;3.42;0.85;;;8.60;99.90;;;;;;5027459;28;20399;-67
2023/12/31 05:12:34;;;;;;;2.70;0.90;;;8.60;99.90;;;;;;4997404;28;20079;-68
2023/12/31 05:15:00;;;;;;;2.05;0.70;;;8.60;99.90;;;;;;5012383;28;20155;-68
2023/12/31 05:17:25;;;;;;;2.60;0.90;;;8.60;99.90;;;;;;5031809;28;20392;-67
2023/12/31 05:19:52;;;;;;;5.20;1.00;;;8.60;99.90;;;;;;5037608;28;20056;-68
2023/12/31 05:22:18;;;;;;;3.78;0.88;;;8.70;99.90;;;;;;5023503;28;20131;-68
2023/12/31 05:24:44;;;;;;;3.28;1.10;;;8.70;99.90;;;;;;5016919;28;20041;-69
2023/12/31 05:27:10;;;;;;;1.98;0.90;;;8.70;99.90;;;;;;5026068;28;20066;-69
2023/12/31 05:29:36;;;;;;;2.17;0.90;;;8.70;99.90;;;;;;5043293;28;20557;-68
2023/12/31 05:32:02;;;;;;;3.55;1.00;;;8.70;99.90;;;;;;5013823;28;20047;-69
2023/12/31 05:34:28;;;;;;;2.35;0.82;;;8.70;99.90;;;;;;5045801;28;20069;-68
2023/12/31 05:36:53;;;;;;;1.98;1.10;;;8.80;99.90;;;;;;5046109;28;20224;-67
2023/12/31 05:39:19;;;;;;;1.83;1.05;;;8.80;99.90;;;;;;4999612;28;20127;-68
2023/12/31 05:41:45;;;;;;;2.17;1.00;;;8.80;99.90;;;;;;5031931;28;20317;-68
2023/12/31 05:44:12;;;;;;;1.90;1.17;;;8.80;99.90;;;;;;5023093;28;20037;-68
2023/12/31 05:46:38;;;;;;;1.40;1.00;;;8.80;99.90;;;;;;5027203;28;20036;-67
2023/12/31 05:49:04;;;;;;;2.80;1.10;;;8.80;99.90;;;;;;5005370;28;20040;-68
2023/12/31 05:51:29;;;;;;;2.25;0.90;;;8.80;99.90;;;;;;4984782;28;20044;-68
2023/12/31 05:53:55;;;;;;;2.55;0.90;;;8.90;99.90;;;;;;5020938;28;20045;-67
2023/12/31 05:56:21;;;;;;;2.63;1.10;;;8.90;99.90;;;;;;5017429;28;20080;-67
2023/12/31 05:58:48;;;;;;;2.85;1.08;;;8.90;99.90;;;;;;5019236;28;20268;-68
2023/12/31 06:01:15;;;;;;;2.13;0.73;;;8.90;99.90;;;;;;5038096;28;20048;-68
2023/12/31 06:03:40;;;;;;;1.67;0.80;;;8.90;99.90;;;;;;5001043;28;20511;-69
2023/12/31 06:06:06;;;;;;;1.25;0.90;;;8.90;99.90;;;;;;4987485;28;20033;-68
2023/12/31 06:08:33;;;;;;;2.75;0.90;;;9.00;99.90;;;;;;5023902;28;20415;-69
2023/12/31 06:10:59;;;;;;;4.55;0.93;;;9.00;99.90;;;;;;5013225;28;20443;-68
2023/12/31 06:13:25;;;;;;;2.50;1.20;;;9.00;99.90;;;;;;4981045;28;20212;-69
2023/12/31 06:15:52;;;;;;;3.80;1.23;;;9.00;99.90;;;;;;4991593;28;20235;-68
2023/12/31 06:18:18;;;;;;;2.70;1.20;;;9.00;99.90;;;;;;5035953;28;20125;-68
2023/12/31 06:20:43;;;;;;;2.53;1.20;;;9.00;99.90;;;;;;5015346;28;20145;-68
2023/12/31 06:23:09;;;;;;;3.45;1.27;;;9.00;99.90;;;;;;5028968;28;20323;-68
2023/12/31 06:25:35;;;;;;;2.47;1.08;;;9.00;99.90;;;;;;5046214;28;20843;-68
2023/12/31 06:28:01;;;;;;;2.20;1.05;;;9.00;99.90;;;;;;5046263;28;20068;-68
2023/12/31 06:30:27;;;;;;;2.80;1.30;;;9.00;99.90;;;;;;5046687;28;20043;-68
2023/12/31 06:32:53;;;;;;;3.30;1.30;;;9.00;99.90;;;;;;5020226;28;20044;-68
2023/12/31 06:35:19;;;;;;;1.83;1.10;;;9.00;99.90;;;;;;5017366;28;20271;-68
2023/12/31 06:37:48;;;;;;;3.75;1.38;;;9.00;99.90;;;;;;5016503;28;20045;-68
2023/12/31 06:40:14;;;;;;;2.90;1.10;;;9.00;99.90;;;;;;5023475;28;20040;-68
2023/12/31 06:42:40;;;;;;;3.85;1.00;;;9.00;99.90;;;;;;5022778;28;20198;-68
2023/12/31 06:45:07;;;;;;;1.92;1.02;;;8.90;99.90;;;;;;5043605;28;20041;-68
2023/12/31 06:47:32;;;;;;;3.33;1.15;;;8.90;99.90;;;;;;5032053;28;20503;-69
2023/12/31 06:49:58;;;;;;;3.17;1.30;;;8.90;99.90;;;;;;5035675;28;20394;-68
2023/12/31 06:52:24;;;;;;;2.00;0.80;;;8.90;99.90;;;;;;5016673;28;20091;-68
2023/12/31 06:54:50;;;;;;;2.70;1.20;;;9.00;99.90;;;;;;5017279;28;20391;-65
2023/12/31 06:57:18;;;;;;;2.70;0.95;;;9.00;99.90;;;;;;5020930;28;20445;-64
2023/12/31 06:59:44;;;;;;;2.08;0.85;;;8.90;99.90;;;;;;4988707;28;20076;-65
2023/12/31 07:02:10;;;;;;;3.08;1.00;;;9.00;99.90;;;;;;5045965;28;21675;-66
2023/12/31 07:04:36;;;;;;;2.28;0.88;;;9.00;99.90;;;;;;4987643;28;20086;-65
2023/12/31 07:07:02;;;;;;;2.13;1.02;;;9.00;99.90;;;;;;5018495;28;20274;-68
2023/12/31 07:09:32;;;;;;;2.42;1.23;;;9.00;99.90;;;;;;5011758;28;20074;-64
2023/12/31 07:11:59;;;;;;;1.48;0.75;;;9.00;99.90;;;;;;5021834;28;20399;-64
2023/12/31 07:14:26;;;;;;;2.58;0.80;;;9.00;99.90;;;;;;5001256;28;20099;-65
2023/12/31 07:16:52;;;;;;;3.28;1.00;;;9.00;99.90;;;;;;5044387;28;20135;-64
2023/12/31 07:19:19;;;;;;;2.47;1.25;;;8.90;99.90;;;;;;5028663;28;20489;-64
2023/12/31 07:21:45;;;;;;;1.98;1.05;;;8.90;99.90;;;;;;5022079;28;20041;-64
2023/12/31 07:24:11;;;;;;;3.08;0.88;;;8.90;99.90;;;;;;5004788;28;20095;-64
2023/12/31 07:26:37;;;;;;;2.78;1.10;;;8.90;99.90;;;;;;5026184;28;20032;-65
2023/12/31 07:29:03;;;;;;;4.32;1.10;;;9.00;99.90;;;;;;5042574;28;20040;-65
2023/12/31 07:31:29;;;;;;;2.33;0.82;;;8.90;99.90;;;;;;5028599;28;20075;-65
2023/12/31 07:33:54;;;;;;;4.25;0.95;;;9.00;99.90;;;;;;5041385;28;20036;-65
2023/12/31 07:36:20;;;;;;;2.10;1.08;;;9.00;99.90;;;;;;5027073;28;20083;-65
2023/12/31 07:38:46;;;;;;;2.55;1.10;;;8.90;99.90;;;;;;5025472;28;20107;-65
2023/12/31 07:41:12;;;;;;;3.30;1.00;;;9.00;99.90;;;;;;5041673;28;20130;-65
2023/12/31 07:43:38;;;;;;;2.05;1.02;;;9.00;99.90;;;;;;5039916;28;20509;-66
2023/12/31 07:46:05;;;;;;;2.42;1.05;;;9.00;99.90;;;;;;5040782;28;20124;-65
2023/12/31 07:48:31;;;;;;;3.08;1.00;;;9.00;99.90;;;;;;5024755;28;20822;-66
2023/12/31 07:50:57;;;;;;;3.13;0.80;;;9.00;99.90;;;;;;5027595;28;20056;-65
2023/12/31 07:53:23;;;;;;;2.15;0.70;;;8.90;99.90;;;;;;5005796;28;20033;-65
2023/12/31 07:55:49;;;;;;;2.97;1.38;;;9.00;99.90;;;;;;5040531;28;20454;-65
2023/12/31 07:58:15;;;;;;;2.33;0.75;;;9.00;99.90;;;;;;5045478;28;20103;-65
2023/12/31 08:00:40;;;;;;;1.90;0.82;;;9.00;99.90;;;;;;5029959;28;20041;-65
2023/12/31 08:03:07;;;;;;;2.42;1.10;;;9.00;99.90;;;;;;5027921;28;20096;-66
2023/12/31 08:05:33;;;;;;;1.85;0.80;;;9.00;99.90;;;;;;5007106;28;20486;-65
2023/12/31 08:07:59;;;;;;;1.98;1.13;;;9.00;99.90;;;;;;5006295;28;20795;-65
2023/12/31 08:10:25;;;;;;;6.20;2.08;;;9.00;99.90;;;;;;5041493;28;20252;-66
2023/12/31 08:12:51;;;;;;;2.33;1.20;;;9.00;99.90;;;;;;5028010;28;20509;-67
2023/12/31 08:15:17;;;;;;;1.70;0.93;;;9.00;99.90;;;;;;5040563;28;20044;-68
2023/12/31 08:17:44;;;;;;;1.52;0.90;;;9.00;99.90;;;;;;5020150;28;20052;-68
2023/12/31 08:20:11;;;;;;;2.10;1.00;;;9.00;99.90;;;;;;5059485;28;20131;-68
2023/12/31 08:22:36;;;;;;;1.73;0.93;;;9.10;99.90;;;;;;5042688;28;20556;-69
2023/12/31 08:25:03;;;;;;;2.20;0.70;;;9.10;99.90;;;;;;5026809;28;20072;-68
2023/12/31 08:27:28;;;;;;;1.75;0.80;;;9.20;99.90;;;;;;5021161;28;20134;-68
2023/12/31 08:29:54;;;;;;;2.28;0.93;;;9.20;99.90;;;;;;5041860;28;20055;-68
2023/12/31 08:32:26;;;;;;;1.52;0.73;;;9.20;99.90;;;;;;5036994;28;20405;-68
2023/12/31 08:34:52;;;;;;;1.45;0.63;;;9.20;99.90;;;;;;5057094;28;20728;-68
2023/12/31 08:37:18;;;;;;;2.33;0.80;;;9.20;99.90;;;;;;5039610;28;20105;-69
2023/12/31 08:39:44;;;;;;;1.55;0.75;;;9.30;99.90;;;;;;5067636;28;20636;-68
2023/12/31 08:42:10;;;;;;;2.22;0.90;;;9.30;99.90;;;;;;5061077;28;20097;-68
2023/12/31 08:44:35;;;;;;;3.08;1.08;;;9.30;99.90;;;;;;5054917;28;20467;-67
2023/12/31 08:47:02;;;;;;;1.55;0.88;;;9.30;99.90;;;;;;5041580;28;20450;-68
2023/12/31 08:49:29;;;;;;;1.70;0.60;;;9.30;99.90;;;;;;5038818;28;20817;-68
2023/12/31 08:51:55;;;;;;;2.55;0.82;;;9.30;99.90;;;;;;5041860;28;20044;-68
2023/12/31 08:54:21;;;;;;;2.22;0.60;;;9.30;99.90;;;;;;5053025;28;20123;-68
2023/12/31 08:56:48;;;;;;;2.65;0.77;;;9.30;99.90;;;;;;5035818;28;20075;-68
2023/12/31 08:59:13;;;;;;;1.48;0.70;;;9.40;99.90;;;;;;5038931;28;20079;-68
2023/12/31 09:01:39;;;;;;;2.20;0.75;;;9.30;99.90;;;;;;5038531;28;20110;-68
2023/12/31 09:04:06;;;;;;;1.85;0.70;;;9.30;99.90;;;;;;5040998;28;20062;-68
2023/12/31 09:06:32;;;;;;;1.10;0.52;;;9.40;99.90;;;;;;5056329;28;20036;-69
2023/12/31 09:08:58;;;;;;;2.13;0.70;;;9.40;99.90;;;;;;5063498;28;20040;-69
2023/12/31 09:11:24;;;;;;;1.23;0.70;;;9.40;99.90;;;;;;5055921;28;20160;-69
2023/12/31 09:13:49;;;;;;;2.38;0.77;;;9.40;99.90;;;;;;5042369;28;20222;-69
2023/12/31 09:16:15;;;;;;;1.90;0.70;;;9.50;99.90;;;;;;5020264;28;20044;-68
2023/12/31 09:18:41;;;;;;;1.42;0.57;;;9.50;99.90;;;;;;5049012;28;20531;-69
2023/12/31 09:21:07;;;;;;;1.50;0.70;;;9.60;99.90;;;;;;5042976;28;20134;-68
2023/12/31 09:23:33;;;;;;;1.15;0.50;;;9.70;99.90;;;;;;5048397;28;20261;-68
2023/12/31 09:25:59;;;;;;;2.60;0.90;;;9.70;99.90;;;;;;5044842;28;20189;-68
2023/12/31 09:28:25;;;;;;;2.38;0.80;;;9.80;99.90;;;;;;5062248;28;20394;-68
2023/12/31 09:30:51;;;;;;;1.50;0.80;;;9.90;99.90;;;;;;5056799;28;20040;-69
2023/12/31 09:33:17;;;;;;;2.88;0.60;;;9.90;99.90;;;;;;5067332;28;20105;-69
2023/12/31 09:35:44;;;;;;;1.42;0.60;;;9.90;99.90;;;;;;5073307;28;20051;-68
2023/12/31 09:38:09;;;;;;;120.22;86.53;;;9.90;99.90;;;;;;5048358;28;20044;-68
2023/12/31 09:40:35;;;;;;;4.65;3.55;;;9.90;99.90;;;;;;5058664;28;20067;-68
2023/12/31 09:43:05;;;;;;;1.85;0.70;;;10.00;99.90;;;;;;5065839;28;20051;-68
2023/12/31 09:45:33;;;;;;;1.60;0.70;;;10.00;99.90;;;;;;5022187;28;20090;-68
2023/12/31 09:48:01;;;;;;;1.98;0.70;;;10.10;99.90;;;;;;5061801;28;20506;-69
2023/12/31 09:50:27;;;;;;;2.45;0.93;;;10.10;99.90;;;;;;5060881;28;20405;-69
2023/12/31 09:52:59;;;;;;;3.88;0.80;;;10.10;99.90;;;;;;5049729;28;20375;-68
2023/12/31 09:55:25;;;;;;;1.98;0.70;;;10.00;99.90;;;;;;5060347;28;20035;-69
2023/12/31 09:57:55;;;;;;;1.77;0.80;;;10.00;99.90;;;;;;5056638;28;20137;-69
2023/12/31 10:00:21;;;;;;;2.47;0.85;;;10.10;99.90;;;;;;5045254;28;20519;-69
2023/12/31 10:02:51;;;;;;;2.72;0.90;;;10.00;99.90;;;;;;5067184;28;20048;-68
2023/12/31 10:05:20;;;;;;;1.30;0.80;;;10.00;99.90;;;;;;5071308;28;20044;-68
2023/12/31 10:07:46;;;;;;;2.45;1.00;;;10.10;99.90;;;;;;5046790;28;20047;-69
2023/12/31 10:10:22;;;;;;;2.45;0.93;;;10.10;99.90;;;;;;5045613;28;20293;-68
2023/12/31 10:12:51;;;;;;;1.48;0.68;;;10.20;99.90;;;;;;5044615;28;20048;-68
2023/12/31 10:15:17;;;;;;;2.35;1.00;;;10.10;99.90;;;;;;5063015;28;20036;-69
2023/12/31 10:17:43;;;;;;;3.45;1.20;;;10.20;99.90;;;;;;5030468;28;20057;-68
2023/12/31 10:20:09;;;;;;;2.40;1.70;;;10.20;99.90;;;;;;5005733;28;20316;-69
2023/12/31 10:22:36;;;;;;;1.58;1.08;;;10.20;99.90;;;;;;5007356;28;20414;-69
2023/12/31 10:25:15;;;;;;;2.03;1.27;;;10.30;99.90;;;;;;5019335;28;20037;-69
2023/12/31 10:27:47;;;;;;;2.17;1.13;;;10.30;99.90;;;;;;5005864;28;20051;-67
2023/12/31 10:30:14;;;;;;;1.85;0.70;;;10.30;99.90;;;;;;5026063;28;20040;-68
2023/12/31 10:32:40;;;;;;;1.60;0.80;;;10.30;99.90;;;;;;5025599;28;20205;-67
2023/12/31 10:35:06;;;;;;;2.33;0.90;;;10.30;99.90;;;;;;5003136;28;20469;-68
2023/12/31 10:37:36;;;;;;;1.50;0.80;;;10.30;99.90;;;;;;5020621;28;20048;-67
2023/12/31 10:40:21;;;;;;;2.33;0.90;;;10.30;99.90;;;;;;5002387;28;20045;-68
2023/12/31 10:42:55;;;;;;;1.88;0.80;;;10.40;99.90;;;;;;5026500;28;20041;-68
2023/12/31 10:45:22;;;;;;;2.08;0.90;;;10.40;99.90;;;;;;5033285;28;20049;-67
2023/12/31 10:47:53;;;;;;;1.58;0.90;;;10.50;99.90;;;;;;5039497;28;20049;-68
2023/12/31 10:50:24;;;;;;;3.20;1.00;;;10.50;99.90;;;;;;5038574;28;20074;-67
2023/12/31 10:52:53;;;;;;;1.77;0.93;;;10.60;99.90;;;;;;5042129;28;20080;-65
2023/12/31 10:55:20;;;;;;;1.70;0.85;;;10.60;99.90;;;;;;5042484;28;20043;-64
2023/12/31 10:57:47;;;;;;;3.45;1.05;;;10.60;99.90;;;;;;5051884;28;20094;-65
2023/12/31 11:00:15;;;;;;;1.85;0.90;;;10.70;99.90;;;;;;5027746;28;20202;-65
2023/12/31 11:02:42;;;;;;;1.55;0.73;;;10.70;99.90;;;;;;5022553;28;20044;-65
2023/12/31 11:05:09;;;;;;;2.90;1.42;;;10.70;99.90;;;;;;5007153;28;20217;-64
2023/12/31 11:07:35;;;;;;;3.22;0.95;;;10.70;99.90;;;;;;5041798;28;20049;-69
2023/12/31 11:10:02;;;;;;;2.53;1.10;;;10.70;99.90;;;;;;5018313;28;20737;-69
2023/12/31 11:12:28;;;;;;;1.70;1.08;;;10.80;99.90;;;;;;5031331;28;20040;-68
2023/12/31 11:15:15;;;;;;;2.03;1.20;;;10.80;99.90;;;;;;5044226;28;20036;-68
2023/12/31 11:17:58;;;;;;;3.15;1.60;;;10.80;99.90;;;;;;5036614;28;20194;-68
2023/12/31 11:20:45;;;;;;;3.72;2.20;;;10.90;99.90;;;;;;5043678;28;20648;-68
2023/12/31 11:23:32;;;;;;;1.58;1.10;;;10.90;99.90;;;;;;5038669;28;20045;-68
2023/12/31 11:25:59;;;;;;;3.40;1.40;;;11.00;99.90;;;;;;5031753;28;20048;-68
2023/12/31 11:28:28;;;;;;;2.70;1.20;;;11.10;99.90;;;;;;5021401;28;20051;-68
2023/12/31 11:31:03;;;;;;;1.10;0.80;;;11.10;99.90;;;;;;5038083;28;20044;-68
2023/12/31 11:33:34;;;;;;;2.40;1.10;;;11.20;99.90;;;;;;5017661;28;20231;-69
2023/12/31 11:36:07;;;;;;;2.58;0.80;;;11.20;99.90;;;;;;5034002;28;20221;-66
2023/12/31 11:38:53;;;;;;;;;;;11.20;99.90;;;;;;5022717;28;20044;-67
2023/12/31 11:41:19;;;;;;;1.77;0.80;;;11.20;99.90;;;;;;4910964;28;19971;-67
2023/12/31 11:46:40;;;;;;;2.78;1.23;;;11.10;99.90;;;;;;5108926;27;20116;-67
2023/12/31 11:49:07;;;;;;;2.05;1.52;;;11.00;99.90;;;;;;5083458;27;20070;-66
2023/12/31 11:51:56;;;;;;;2.60;1.23;;;11.00;99.90;;;;;;5107345;28;20566;-66
2023/12/31 11:54:34;;;;;;;2.10;1.23;;;10.90;99.90;;;;;;5092921;28;20793;-67
2023/12/31 11:57:02;;;;;;;3.17;1.20;;;11.00;99.90;;;;;;5106960;28;20058;-66
2023/12/31 11:59:27;;;;;;;2.65;1.55;;;10.90;99.90;;;;;;5105407;28;20251;-67
2023/12/31 12:01:54;;;;;;;2.53;1.20;;;10.80;99.90;;;;;;5106298;28;20195;-67
2023/12/31 12:04:21;;;;;;;3.38;1.48;;;10.60;99.90;;;;;;5088762;28;20300;-68
2023/12/31 12:06:46;;;;;;;1.83;1.35;;;10.50;99.90;;;;;;5071997;28;20065;-68
2023/12/31 12:09:12;;;;;;;3.47;1.08;;;10.40;99.90;;;;;;5089853;28;20040;-67
2023/12/31 12:11:43;;;;;;;2.75;1.83;;;10.30;99.90;;;;;;5089267;28;20138;-67
2023/12/31 12:14:12;;;;;;;2.65;1.77;;;10.20;99.90;;;;;;5106823;27;20119;-67
2023/12/31 12:16:42;;;;;;;2.75;2.30;;;10.20;99.90;;;;;;5106937;28;20047;-68
2023/12/31 12:19:08;;;;;;;3.58;2.42;;;10.00;99.90;;;;;;5090552;28;20546;-66
2023/12/31 12:21:34;;;;;;;2.65;1.40;;;9.90;99.90;;;;;;5090790;28;20194;-67
2023/12/31 12:24:04;;;;;;;3.55;1.67;;;9.40;99.90;;;;;;5076055;28;20046;-67
2023/12/31 12:26:29;;;;;;;2.92;0.98;;;9.00;99.90;;;;;;5090422;28;20483;-69
2023/12/31 12:28:56;;;;;;;2.65;0.80;;;8.60;99.90;;;;;;5106356;28;20045;-68
2023/12/31 12:31:25;;;;;;;3.67;2.80;;;8.30;99.90;;;;;;5106468;28;20043;-69
2023/12/31 12:33:53;;;;;;;5.03;3.03;;;8.20;99.90;;;;;;5088759;28;20039;-68
2023/12/31 12:36:20;;;;;;;4.35;1.80;;;8.20;99.90;;;;;;5088365;28;20091;-68
2023/12/31 12:38:48;;;;;;;6.25;3.72;;;8.20;99.90;;;;;;5071471;28;20193;-70
2023/12/31 12:41:21;;;;;;;5.28;2.17;;;8.40;99.90;;;;;;5071359;28;20752;-68
2023/12/31 12:43:51;;;;;;;4.43;3.15;;;8.30;99.90;;;;;;5088718;28;20081;-68
2023/12/31 12:46:17;;;;;;;2.63;0.80;;;8.30;99.90;;;;;;5070183;28;20075;-67
2023/12/31 12:48:50;;;;;;;1.60;0.60;;;8.40;99.90;;;;;;5081235;28;20282;-67
2023/12/31 12:51:16;;;;;;;3.67;1.10;;;8.40;99.90;;;;;;5105508;28;20412;-68
2023/12/31 12:53:41;;;;;;;3.28;1.02;;;8.40;99.90;;;;;;5087228;28;20319;-67
2023/12/31 12:56:07;;;;;;;3.00;1.42;;;8.50;99.90;;;;;;5065332;28;20090;-68